Pagrindinis puslapis
METAR-TAF:

METAR-TAF

Oro uostai :

Mursija, Corvera, Ispanija

platuma: 37-48-13N, ilguma: 1-07-27W, Aukštis: 193 m

Dabartinis oras

Ataskaita buvo paskelbta 25 minutes, ne 21:00 UTC
Vėjas 5 kt iš Vakarų/Šiaurės Vakarų
Temperatūra 8°C
Drėgmė 87%
Slėgis 1020 hPa
Matomumas 10 km arba daugiau
nėra debesų žemiau 1500 m ir nėra kamuolinių lietaus debesų

METAR: LEMI 282100Z 29005KT CAVOK 08/06 Q1020

Laikas: 22:25 (21:25 UTC)


TAF: trūkstamas

Orai ataskaitas ir orų prognozės (METAR, TAF).

turimą stotys yra geltonos ir raudonos taškus žemėlapyje.

Perkelti pele per norėdami pamatyti stoties vardą.

Tada spustelėkite, norėdami matyti oro stebėjimo ir prognozės.

Norėdami pakeisti žemėlapį: spustelėkite ant žalios mygtukų su juodo kryžiaus žemyn,; žalią mygtuką su brūkšneliu, jei norite nutolinti; arba žalių rodyklių gretimoms žemėlapius.


METAR-TAF: